Time;durP1;ratioP1;P1;durP2;ratioP2;P2;SDS_P1;SDS_P2;PMS_P1;PMS_P2;Temp;Humidity;BMP_temperature;BMP_pressure;BME280_temperature;BME280_humidity;BME280_pressure;Samples;Min_cycle;Max_cycle;Signal;HPM_P1;HPM_P2
2022/12/15 00:39:04;;;;;;;;;;;;;;;25.08;41.69;92686.34;4969957;28;7266;-62
2022/12/15 00:41:30;;;;;;;;;;;;;;;25.07;41.44;92689.63;4963739;28;7030;-62
2022/12/15 00:43:57;;;;;;;;;;;;;;;25.09;41.68;92693.31;4955090;28;7209;-61
2022/12/15 00:46:54;;;;;;;;;;;;;;;25.10;41.66;92697.53;4973338;28;7362;-62
2022/12/15 01:21:44;;;;;;;;;;;;;;;25.10;41.27;92732.56;4931584;29;8981;-61
2022/12/15 01:24:10;;;;;;;;;;;;;;;25.09;41.53;92725.59;4934614;29;7485;-61
2022/12/15 01:26:38;;;;;;;;;;;;;;;25.09;41.46;92742.09;4931405;29;7242;-62
2022/12/15 01:29:05;;;;;;;;;;;;;;;25.11;41.72;92734.75;4935467;28;7122;-61
2022/12/15 01:31:42;;;;;;;;;;;;;;;25.12;41.80;92741.72;4924609;29;9353;-62
2022/12/15 01:34:11;;;;;;;;;;;;;;;25.13;42.04;92734.22;4927422;29;7337;-61
2022/12/15 01:36:37;;;;;;;;;;;;;;;25.10;41.31;92736.03;4935602;29;7249;-62
2022/12/15 01:39:03;;;;;;;;;;;;;;;25.10;41.95;92738.78;4910961;29;9304;-62
2022/12/15 01:41:32;;;;;;;;;;;;;;;25.12;41.97;92743.75;4952106;28;9037;-62
2022/12/15 01:44:24;;;;;;;;;;;;;;;25.13;41.06;92747.97;4931140;28;9365;-62
2022/12/15 01:47:01;;;;;;;;;;;;;;;25.13;41.14;92734.22;4948994;28;7508;-61
2022/12/15 01:49:31;;;;;;;;;;;;;;;25.13;41.13;92742.47;4932625;28;8992;-62
2022/12/15 01:52:04;;;;;;;;;;;;;;;25.11;41.10;92748.53;4926793;28;7214;-62
2022/12/15 01:54:44;;;;;;;;;;;;;;;25.10;41.32;92747.03;4938889;28;8870;-62
2022/12/15 01:57:21;;;;;;;;;;;;;;;25.09;41.31;92744.84;4951222;28;7037;-61
2022/12/15 01:59:56;;;;;;;;;;;;;;;25.10;41.82;92743.56;4952071;28;7158;-62
2022/12/15 02:02:29;;;;;;;;;;;;;;;25.10;41.71;92746.31;4979338;28;9031;-62
2022/12/15 02:05:05;;;;;;;;;;;;;;;25.09;41.98;92744.84;4974879;28;7018;-62
2022/12/15 02:07:39;;;;;;;;;;;;;;;25.11;41.46;92751.28;4979124;28;9019;-62
2022/12/15 02:10:11;;;;;;;;;;;;;;;25.11;41.27;92745.03;4970205;28;7031;-62
2022/12/15 02:16:27;;;;;;;;;;;;;;;25.10;41.17;92740.81;4943434;28;7079;-61
2022/12/15 02:19:37;;;;;;;;;;;;;;;25.10;41.92;92735.31;4933249;29;7255;-61
2022/12/15 02:22:25;;;;;;;;;;;;;;;25.10;41.01;92732.56;4892491;29;8948;-62
2022/12/15 02:25:22;;;;;;;;;;;;;;;25.09;41.86;92734.59;4914397;29;7205;-61
2022/12/15 02:27:59;;;;;;;;;;;;;;;25.09;41.93;92739.34;4907068;29;7332;-62
2022/12/15 02:30:43;;;;;;;;;;;;;;;25.09;41.86;92740.09;4897170;29;7228;-61
2022/12/15 02:33:40;;;;;;;;;;;;;;;25.11;40.91;92742.28;4906698;29;7323;-61
2022/12/15 02:37:01;;;;;;;;;;;;;;;25.12;41.79;92738.25;4897208;29;9371;-62
2022/12/15 02:39:28;;;;;;;;;;;;;;;25.11;41.39;92747.78;4895795;29;7801;-61
2022/12/15 02:42:25;;;;;;;;;;;;;;;25.11;40.77;92753.28;4913860;29;7277;-62
2022/12/15 02:44:56;;;;;;;;;;;;;;;25.08;41.75;92766.09;4839895;29;7204;-62
2022/12/15 02:48:09;;;;;;;;;;;;;;;25.09;41.85;92777.84;4855777;29;7093;-62
2022/12/15 02:51:07;;;;;;;;;;;;;;;25.08;41.08;92776.38;4858418;29;7375;-62
2022/12/15 02:54:12;;;;;;;;;;;;;;;25.09;41.76;92773.09;4893791;29;7287;-62
2022/12/15 02:57:12;;;;;;;;;;;;;;;25.09;41.86;92772.34;4838102;29;7450;-62
2022/12/15 02:59:54;;;;;;;;;;;;;;;25.08;41.29;92765.38;4811915;29;7228;-62
2022/12/15 03:02:27;;;;;;;;;;;;;;;25.08;41.22;92751.63;4841603;29;7050;-62
2022/12/15 03:04:54;;;;;;;;;;;;;;;25.09;41.04;92755.84;4825334;29;6926;-61
2022/12/15 03:07:29;;;;;;;;;;;;;;;25.08;41.58;92755.09;4845127;29;7057;-61
2022/12/15 03:10:01;;;;;;;;;;;;;;;25.09;41.52;92750.34;4826346;29;9839;-62
2022/12/15 03:12:27;;;;;;;;;;;;;;;25.07;41.19;92756.41;4826603;29;7043;-61
2022/12/15 03:15:06;;;;;;;;;;;;;;;25.09;41.36;92761.34;4824591;29;7253;-61
2022/12/15 03:17:37;;;;;;;;;;;;;;;25.09;41.53;92766.84;4837673;29;9346;-62
2022/12/15 03:20:14;;;;;;;;;;;;;;;25.09;41.19;92769.59;4840885;29;7050;-61
2022/12/15 03:22:41;;;;;;;;;;;;;;;25.11;41.73;92753.28;4878687;29;7049;-61
2022/12/15 03:25:26;;;;;;;;;;;;;;;25.11;41.38;92767.03;4862654;29;9197;-61
2022/12/15 03:27:59;;;;;;;;;;;;;;;25.09;41.34;92773.09;4874393;29;7251;-62
2022/12/15 03:30:25;;;;;;;;;;;;;;;25.10;41.01;92779.34;4861747;29;9583;-61
2022/12/15 03:33:04;;;;;;;;;;;;;;;25.06;41.47;92774.16;4905012;28;7470;-62
2022/12/15 03:35:39;;;;;;;;;;;;;;;25.10;41.15;92777.31;4950238;28;7249;-62
2022/12/15 03:38:05;;;;;;;;;;;;;;;25.09;41.20;92778.59;4956700;28;7314;-61
2022/12/15 03:40:33;;;;;;;;;;;;;;;25.09;41.64;92780.59;4972231;28;6998;-61
2022/12/15 03:43:06;;;;;;;;;;;;;;;25.08;41.19;92776.38;4953821;28;9725;-61
2022/12/15 03:45:35;;;;;;;;;;;;;;;25.10;40.96;92782.09;4950787;28;9387;-62
2022/12/15 03:48:09;;;;;;;;;;;;;;;25.09;41.45;92786.09;4975693;28;7305;-61
2022/12/15 03:50:48;;;;;;;;;;;;;;;25.10;41.49;92790.34;4960859;28;7139;-62
2022/12/15 03:53:22;;;;;;;;;;;;;;;25.10;40.72;92793.09;4968193;28;9384;-61
2022/12/15 03:55:48;;;;;;;;;;;;;;;25.09;41.04;92786.09;4956596;28;7247;-61
2022/12/15 03:58:14;;;;;;;;;;;;;;;25.09;41.05;92786.84;4969300;28;8239;-62
2022/12/15 04:00:42;;;;;;;;;;;;;;;25.09;41.51;92784.09;4952947;28;8642;-62
2022/12/15 04:03:11;;;;;;;;;;;;;;;25.08;40.48;92785.38;4952777;28;7136;-61
2022/12/15 04:05:39;;;;;;;;;;;;;;;25.10;41.67;92784.84;4967866;28;7311;-62
2022/12/15 04:08:13;;;;;;;;;;;;;;;25.10;41.31;92790.34;4972216;28;6990;-61
2022/12/15 04:10:48;;;;;;;;;;;;;;;25.11;41.41;92792.53;4972653;28;7004;-61
2022/12/15 04:13:22;;;;;;;;;;;;;;;25.10;40.93;92790.34;4961265;28;9174;-61
2022/12/15 04:15:49;;;;;;;;;;;;;;;25.08;41.16;92790.88;4964422;28;7033;-61
2022/12/15 04:18:15;;;;;;;;;;;;;;;25.08;41.51;92792.88;4955147;28;7263;-61
2022/12/15 04:20:43;;;;;;;;;;;;;;;25.09;41.28;92794.34;4971434;28;7064;-62
2022/12/15 04:23:17;;;;;;;;;;;;;;;25.10;40.78;92799.31;4949091;28;9473;-61
2022/12/15 05:31:53;;;;;;;;;;;;;;;25.08;41.08;92836.88;4915729;29;9184;-60
2022/12/15 05:34:28;;;;;;;;;;;;;;;25.07;40.72;92835.44;4917478;29;8289;-60
2022/12/15 05:36:57;;;;;;;;;;;;;;;25.07;41.00;92832.69;4912257;29;7289;-61
2022/12/15 05:39:26;;;;;;;;;;;;;;;25.07;40.68;92836.19;4914315;29;7215;-61
2022/12/15 05:41:57;;;;;;;;;;;;;;;25.09;40.99;92827.38;4907774;29;7316;-61
2022/12/15 05:44:28;;;;;;;;;;;;;;;25.09;41.80;92821.88;4911306;28;7258;-61
2022/12/15 05:46:57;;;;;;;;;;;;;;;25.08;41.34;92814.88;4967259;28;7137;-61
2022/12/15 05:50:01;;;;;;;;;;;;;;;25.11;41.13;92824.81;4953337;28;7060;-61
2022/12/15 05:52:27;;;;;;;;;;;;;;;25.14;42.30;92818.22;4877149;29;7317;-61
2022/12/15 05:54:53;;;;;;;;;;;;;;;25.15;41.92;92833.44;4892512;29;9662;-61
2022/12/15 05:57:19;;;;;;;;;;;;;;;25.12;41.57;92820.78;4886776;29;7007;-61
2022/12/15 05:59:47;;;;;;;;;;;;;;;25.15;41.81;92825.94;4871172;29;7410;-61
2022/12/15 06:02:15;;;;;;;;;;;;;;;25.16;42.46;92824.66;4870319;29;8950;-61
2022/12/15 06:04:42;;;;;;;;;;;;;;;25.21;42.16;92828.50;4883754;29;7614;-61
2022/12/15 06:07:08;;;;;;;;;;;;;;;25.23;42.00;92823.94;4876181;29;7241;-61
2022/12/15 06:09:35;;;;;;;;;;;;;;;25.21;42.01;92809.97;4875178;29;7025;-61
2022/12/15 06:12:07;;;;;;;;;;;;;;;25.24;41.62;92813.66;4891737;29;7897;-61
2022/12/15 06:14:35;;;;;;;;;;;;;;;25.24;41.69;92811.66;4888635;29;7278;-61
2022/12/15 06:17:19;;;;;;;;;;;;;;;25.23;42.64;92799.16;4894975;29;7461;-62
2022/12/15 06:19:45;;;;;;;;;;;;;;;25.24;42.37;92802.66;4888058;29;8399;-61
2022/12/15 06:22:23;;;;;;;;;;;;;;;25.25;41.33;92804.13;4882886;28;9059;-61
2022/12/15 06:24:57;;;;;;;;;;;;;;;25.25;42.19;92802.09;4972210;28;8966;-61
2022/12/15 06:27:36;;;;;;;;;;;;;;;25.25;42.12;92804.84;4976334;28;9537;-61
2022/12/15 06:30:04;;;;;;;;;;;;;;;25.26;42.26;92803.59;4955435;28;7248;-61
2022/12/15 06:32:35;;;;;;;;;;;;;;;25.28;41.96;92809.28;4954064;28;7070;-61
2022/12/15 06:35:40;;;;;;;;;;;;;;;25.30;41.98;92806.72;4975954;28;7497;-61
2022/12/15 06:38:18;;;;;;;;;;;;;;;25.32;41.50;92808.91;4956969;28;7481;-61
2022/12/15 06:40:59;;;;;;;;;;;;;;;25.32;42.01;92815.16;4958689;28;6867;-61
2022/12/15 06:43:27;;;;;;;;;;;;;;;25.31;41.97;92816.44;4973090;28;7096;-61
2022/12/15 06:46:00;;;;;;;;;;;;;;;25.28;41.59;92816.78;4958494;28;7287;-61
2022/12/15 06:48:37;;;;;;;;;;;;;;;25.30;41.64;92808.72;4952317;28;7140;-61
2022/12/15 06:51:21;;;;;;;;;;;;;;;25.30;41.07;92805.97;4949366;28;7038;-61
2022/12/15 06:53:52;;;;;;;;;;;;;;;25.31;41.89;92815.72;4957225;28;9380;-62
2022/12/15 06:56:28;;;;;;;;;;;;;;;25.33;42.09;92813.88;4971670;28;7661;-61
2022/12/15 06:58:54;;;;;;;;;;;;;;;25.33;41.59;92818.66;4975283;28;7009;-60
2022/12/15 07:01:25;;;;;;;;;;;;;;;25.35;41.83;92824.34;4949669;28;7033;-60
2022/12/15 07:04:01;;;;;;;;;;;;;;;25.34;41.65;92818.09;4979119;28;9178;-60
2022/12/15 07:10:30;;;;;;;;;;;;;;;25.36;41.29;92829.28;4971524;28;7234;-61
2022/12/15 07:13:14;;;;;;;;;;;;;;;25.36;41.49;92840.28;4945172;28;7560;-62
2022/12/15 07:15:43;;;;;;;;;;;;;;;25.38;41.67;92843.25;4953995;28;7193;-62
2022/12/15 07:18:11;;;;;;;;;;;;;;;25.38;41.16;92837.72;4973261;28;7180;-62
2022/12/15 07:20:40;;;;;;;;;;;;;;;25.43;41.77;92844.38;4966360;28;7412;-62
2022/12/15 07:23:13;;;;;;;;;;;;;;;25.42;40.87;92845.69;4952614;28;9354;-62
2022/12/15 07:25:46;;;;;;;;;;;;;;;25.45;41.14;92855.56;4956639;28;7049;-62
2022/12/15 07:28:27;;;;;;;;;;;;;;;25.44;40.78;92854.13;4968795;28;9009;-61
2022/12/15 07:31:11;;;;;;;;;;;;;;;25.45;41.50;92872.09;4955155;28;7121;-61
2022/12/15 07:33:47;;;;;;;;;;;;;;;25.45;41.36;92874.84;4974221;28;7128;-61
2022/12/15 07:36:19;;;;;;;;;;;;;;;25.45;40.79;92877.59;4941620;28;9058;-61
2022/12/15 07:38:59;;;;;;;;;;;;;;;25.42;41.02;92875.97;4969153;28;7640;-61
2022/12/15 07:41:54;;;;;;;;;;;;;;;25.43;41.21;92877.41;4960581;28;7409;-61
2022/12/15 07:44:33;;;;;;;;;;;;;;;25.44;41.33;92867.88;4896915;29;7223;-61
2022/12/15 07:47:03;;;;;;;;;;;;;;;25.42;41.28;92875.97;4912575;29;7043;-61
2022/12/15 07:49:29;;;;;;;;;;;;;;;25.44;41.56;92873.38;4896206;29;7709;-62
2022/12/15 07:51:57;;;;;;;;;;;;;;;25.42;40.89;92871.16;4900149;29;7716;-62
2022/12/15 07:54:23;;;;;;;;;;;;;;;25.42;41.46;92886.97;4914522;29;7014;-61
2022/12/15 07:56:51;;;;;;;;;;;;;;;25.44;41.74;92889.91;4896910;29;9317;-61
2022/12/15 07:59:18;;;;;;;;;;;;;;;25.46;40.94;92886.59;4897999;29;9386;-62
2022/12/15 08:01:44;;;;;;;;;;;;;;;25.43;40.86;92888.41;4909903;29;7382;-62
2022/12/15 08:04:19;;;;;;;;;;;;;;;25.43;41.61;92893.94;4903946;29;7332;-62
2022/12/15 08:06:58;;;;;;;;;;;;;;;25.43;41.28;92894.66;4899039;29;6989;-62
2022/12/15 08:09:37;;;;;;;;;;;;;;;25.44;41.35;92895.41;4910370;29;7277;-62
2022/12/15 08:12:05;;;;;;;;;;;;;;;25.43;41.41;92900.19;4907892;29;7050;-62
2022/12/15 08:14:32;;;;;;;;;;;;;;;25.41;41.27;92888.19;4896891;29;8766;-63
2022/12/15 08:16:58;;;;;;;;;;;;;;;25.41;41.59;92899.97;4915375;29;9706;-62
2022/12/15 08:19:24;;;;;;;;;;;;;;;25.41;41.75;92901.97;4907075;29;7040;-63
2022/12/15 08:21:50;;;;;;;;;;;;;;;25.43;41.60;92893.94;4960745;28;7253;-62
2022/12/15 08:24:23;;;;;;;;;;;;;;;25.42;41.27;92903.47;4952288;28;7014;-62
2022/12/15 08:26:59;;;;;;;;;;;;;;;25.43;40.83;92893.94;4941504;28;7649;-62
2022/12/15 08:29:27;;;;;;;;;;;;;;;25.44;41.20;92884.41;4969716;28;9552;-62
2022/12/15 08:32:00;;;;;;;;;;;;;;;25.43;41.36;92882.91;4963452;28;7561;-62
2022/12/15 08:34:37;;;;;;;;;;;;;;;25.42;41.23;92882.16;4971494;28;9135;-62
2022/12/15 08:37:05;;;;;;;;;;;;;;;25.41;41.53;92874.44;4970786;28;7320;-62
2022/12/15 08:39:31;;;;;;;;;;;;;;;25.41;41.03;92868.94;4955556;28;7069;-62
2022/12/15 08:42:10;;;;;;;;;;;;;;;25.41;41.51;92871.69;4955516;28;7275;-62
2022/12/15 08:44:36;;;;;;;;;;;;;;;25.41;41.71;92868.94;4951657;28;8474;-62
2022/12/15 08:47:29;;;;;;;;;;;;;;;25.43;41.85;92871.91;4968034;28;9725;-62
2022/12/15 08:49:55;;;;;;;;;;;;;;;25.43;41.49;92883.66;4898553;29;7110;-62
2022/12/15 08:52:35;;;;;;;;;;;;;;;25.42;41.11;92881.47;4909424;29;7358;-62
2022/12/15 08:55:03;;;;;;;;;;;;;;;25.42;41.40;92873.19;4910991;29;7598;-62
2022/12/15 08:57:29;;;;;;;;;;;;;;;25.42;41.03;92881.47;4896501;29;7016;-62
2022/12/15 08:59:55;;;;;;;;;;;;;;;25.42;41.71;92881.47;4891083;29;7023;-62
2022/12/15 09:02:21;;;;;;;;;;;;;;;25.42;41.47;92881.47;4912174;29;7169;-62
2022/12/15 09:04:50;;;;;;;;;;;;;;;25.42;41.38;92884.94;4901187;29;9312;-62
2022/12/15 09:07:26;;;;;;;;;;;;;;;25.42;40.96;92884.94;4911122;29;9083;-62
2022/12/15 09:10:08;;;;;;;;;;;;;;;25.42;41.42;92886.97;4908791;29;7066;-62
2022/12/15 09:12:50;;;;;;;;;;;;;;;25.43;41.49;92893.94;4910374;29;8464;-62
2022/12/15 09:15:59;;;;;;;;;;;;;;;25.43;40.87;92894.66;4892009;29;7357;-62
2022/12/15 09:18:27;;;;;;;;;;;;;;;25.40;41.21;92897.75;4857240;29;9021;-62
2022/12/15 09:21:11;;;;;;;;;;;;;;;25.41;41.07;92897.19;4839867;29;7093;-62
2022/12/15 09:23:50;;;;;;;;;;;;;;;25.42;41.05;92904.19;4845198;29;6920;-62
2022/12/15 09:26:36;;;;;;;;;;;;;;;25.41;41.60;92899.22;4866038;29;9003;-62
2022/12/15 09:29:37;;;;;;;;;;;;;;;25.42;41.05;92897.97;4857164;29;8843;-62
2022/12/15 09:32:23;;;;;;;;;;;;;;;25.41;41.54;92899.22;4813710;29;7245;-62
2022/12/15 09:34:55;;;;;;;;;;;;;;;25.41;41.66;92896.47;4812264;29;9398;-62
2022/12/15 09:37:40;;;;;;;;;;;;;;;25.43;41.66;92893.94;4824300;29;9165;-62
2022/12/15 09:40:12;;;;;;;;;;;;;;;25.41;41.19;92882.69;4824015;29;8477;-62
2022/12/15 09:42:54;;;;;;;;;;;;;;;25.44;41.22;92873.38;4817835;29;8302;-62
2022/12/15 09:45:31;;;;;;;;;;;;;;;25.43;41.11;92871.91;4819698;29;7347;-62
2022/12/15 09:48:22;;;;;;;;;;;;;;;25.44;41.04;92887.16;4821506;29;7385;-62
2022/12/15 09:50:56;;;;;;;;;;;;;;;25.42;41.12;92897.97;4820513;29;8302;-62
2022/12/15 09:53:25;;;;;;;;;;;;;;;25.43;41.90;92900.19;4818597;29;8822;-62
2022/12/15 09:56:02;;;;;;;;;;;;;;;25.45;41.73;92898.91;4844926;29;7409;-61
2022/12/15 09:58:40;;;;;;;;;;;;;;;25.46;40.94;92903.84;4872940;29;9491;-61
2022/12/15 10:01:46;;;;;;;;;;;;;;;25.47;40.82;92908.06;4872514;29;9051;-62
2022/12/15 10:05:05;;;;;;;;;;;;;;;25.47;41.66;92908.06;4832107;29;7033;-62
2022/12/15 10:07:44;;;;;;;;;;;;;;;25.45;40.95;92899.63;4836392;29;7035;-62
2022/12/15 10:10:52;;;;;;;;;;;;;;;25.47;41.36;92894.31;4832991;29;7307;-62
2022/12/15 10:13:41;;;;;;;;;;;;;;;25.44;40.86;92889.91;4748866;30;7232;-61
2022/12/15 10:16:56;;;;;;;;;;;;;;;25.44;41.16;92889.91;4756966;30;9022;-62
2022/12/15 10:19:51;;;;;;;;;;;;;;;25.45;41.86;92896.16;4730762;30;7237;-62
2022/12/15 10:22:38;;;;;;;;;;;;;;;25.45;41.79;92885.16;4728951;30;8191;-62
2022/12/15 10:25:33;;;;;;;;;;;;;;;25.45;40.96;92880.34;4724976;30;7345;-62
2022/12/15 10:28:32;;;;;;;;;;;;;;;25.46;41.61;92872.84;4734093;30;7909;-61
2022/12/15 10:31:01;;;;;;;;;;;;;;;25.44;40.78;92867.88;4712117;30;7257;-61
2022/12/15 10:34:08;;;;;;;;;;;;;;;25.43;41.95;92864.38;4713768;30;9066;-62
2022/12/15 10:36:53;;;;;;;;;;;;;;;25.47;41.67;92857.81;4707831;30;8674;-61
2022/12/15 10:39:40;;;;;;;;;;;;;;;25.46;41.61;92846.06;4718239;30;8782;-62
2022/12/15 10:42:26;;;;;;;;;;;;;;;25.45;40.97;92843.84;4735920;30;9028;-61
2022/12/15 10:44:57;;;;;;;;;;;;;;;25.46;41.49;92837.78;4750294;30;8719;-61
2022/12/15 10:47:40;;;;;;;;;;;;;;;25.46;41.28;92826.03;4750890;30;8707;-62
2022/12/15 10:50:22;;;;;;;;;;;;;;;25.46;41.34;92832.28;4775528;29;7245;-61
2022/12/15 10:53:53;;;;;;;;;;;;;;;25.46;41.13;92845.31;4827598;29;7300;-61
2022/12/15 10:56:25;;;;;;;;;;;;;;;25.45;41.04;92830.81;4826517;29;7269;-61
2022/12/15 10:58:58;;;;;;;;;;;;;;;25.45;41.06;92824.59;4839652;29;8446;-61
2022/12/15 11:01:32;;;;;;;;;;;;;;;25.43;41.39;92831.34;4843714;29;7241;-61
2022/12/15 11:04:32;;;;;;;;;;;;;;;25.43;41.51;92825.84;4857383;29;9660;-62
2022/12/15 11:07:02;;;;;;;;;;;;;;;25.43;41.82;92822.34;4854052;29;7475;-61
2022/12/15 11:09:37;;;;;;;;;;;;;;;25.43;41.94;92820.34;4852634;29;9659;-61
2022/12/15 11:15:37;;;;;;;;;;;;;;;25.37;42.14;92797.75;4859053;29;7586;-61
2022/12/15 11:18:19;;;;;;;;;;;;;;;25.34;42.68;92785.06;4835078;29;7659;-60
2022/12/15 11:21:10;;;;;;;;;;;;;;;25.34;42.66;92778.81;4861465;29;7243;-60
2022/12/15 11:23:54;;;;;;;;;;;;;;;25.30;41.90;92781.19;4855923;29;7292;-60
2022/12/15 11:26:29;;;;;;;;;;;;;;;25.30;41.95;92781.94;4852091;29;9527;-60
2022/12/15 11:29:29;;;;;;;;;;;;;;;25.30;42.18;92775.69;4849447;29;9094;-61
2022/12/15 11:31:56;;;;;;;;;;;;;;;25.31;41.75;92764.16;4806758;29;8938;-61
2022/12/15 11:34:35;;;;;;;;;;;;;;;25.32;41.30;92760.13;4844791;29;8247;-62
2022/12/15 11:37:26;;;;;;;;;;;;;;;25.33;42.07;92755.34;4837899;29;7001;-61
2022/12/15 11:40:20;;;;;;;;;;;;;;;25.33;42.07;92747.09;4819446;29;8707;-61
2022/12/15 11:43:01;;;;;;;;;;;;;;;25.33;41.50;92744.34;4833543;29;8881;-62
2022/12/15 11:45:56;;;;;;;;;;;;;;;25.33;41.82;92747.84;4829172;29;9134;-62
2022/12/15 11:49:13;;;;;;;;;;;;;;;25.31;41.90;92735.91;4833128;29;7271;-71
2022/12/15 11:52:35;;;;;;;;;;;;;;;25.29;42.41;92725.44;4823382;29;7693;-72
2022/12/15 11:55:31;;;;;;;;;;;;;;;25.29;42.72;92733.69;4817207;29;7014;-71
2022/12/15 11:57:59;;;;;;;;;;;;;;;25.30;42.72;92731.66;4787446;29;8326;-71
2022/12/15 12:00:29;;;;;;;;;;;;;;;25.28;42.49;92734.97;4804407;29;8647;-69
2022/12/15 12:03:40;;;;;;;;;;;;;;;25.32;42.80;92729.84;4788303;29;8796;-71
2022/12/15 12:06:31;;;;;;;;;;;;;;;25.33;42.66;92727.84;4788528;29;8526;-71
2022/12/15 12:09:19;;;;;;;;;;;;;;;25.35;42.31;92725.25;4799727;29;7209;-71
2022/12/15 12:12:24;;;;;;;;;;;;;;;25.35;42.02;92719.75;4782134;29;7917;-73
2022/12/15 12:15:16;;;;;;;;;;;;;;;25.37;42.12;92733.69;4781858;29;7623;-70
2022/12/15 12:18:16;;;;;;;;;;;;;;;25.37;41.93;92725.44;4810583;29;7658;-72
2022/12/15 12:21:27;;;;;;;;;;;;;;;25.43;41.31;92718.50;4799932;29;7208;-71
2022/12/15 12:24:52;;;;;;;;;;;;;;;25.48;42.46;92714.09;4830888;29;7439;-72
2022/12/15 12:27:19;;;;;;;;;;;;;;;25.52;41.88;92708.22;4810973;29;8577;-60
2022/12/15 12:30:02;;;;;;;;;;;;;;;25.54;41.88;92691.88;4819128;29;9273;-60
2022/12/15 12:33:10;;;;;;;;;;;;;;;25.51;41.18;92690.25;4881588;29;7050;-60
2022/12/15 12:35:51;;;;;;;;;;;;;;;25.46;42.39;92689.16;4888182;29;7113;-68
2022/12/15 12:38:32;;;;;;;;;;;;;;;25.47;41.74;92687.16;4891276;29;8574;-70
2022/12/15 12:41:24;;;;;;;;;;;;;;;25.48;41.94;92683.84;4891637;29;7276;-68
2022/12/15 12:43:57;;;;;;;;;;;;;;;25.50;41.74;92684.00;4901930;29;7064;-73
2022/12/15 12:46:34;;;;;;;;;;;;;;;25.49;41.59;92677.03;4893204;29;7713;-73
2022/12/15 12:49:20;;;;;;;;;;;;;;;25.49;42.12;92677.03;4906054;29;7498;-69
2022/12/15 12:51:53;;;;;;;;;;;;;;;25.51;41.78;92668.25;4907053;29;7092;-72
2022/12/15 12:54:34;;;;;;;;;;;;;;;25.53;41.11;92660.91;4905702;29;7632;-69
2022/12/15 12:57:19;;;;;;;;;;;;;;;25.54;41.37;92659.59;4913415;28;8992;-67
2022/12/15 12:59:58;;;;;;;;;;;;;;;25.55;41.13;92652.06;4946548;28;7581;-73
2022/12/15 13:02:24;;;;;;;;;;;;;;;25.56;41.52;92650.78;4954644;28;7082;-71
2022/12/15 13:05:21;;;;;;;;;;;;;;;25.54;41.28;92640.31;4944385;28;8394;-72
2022/12/15 13:08:27;;;;;;;;;;;;;;;25.56;41.26;92640.50;4944512;28;8493;-70
2022/12/15 13:10:55;;;;;;;;;;;;;;;25.56;41.15;92648.03;4918541;29;7429;-73
2022/12/15 13:13:43;;;;;;;;;;;;;;;25.55;41.54;92647.31;4934107;28;8448;-73
2022/12/15 13:16:37;;;;;;;;;;;;;;;25.54;41.12;92632.06;4917408;29;7057;-72
2022/12/15 13:19:07;;;;;;;;;;;;;;;25.54;41.27;92623.81;4923547;29;7975;-70
2022/12/15 13:21:42;;;;;;;;;;;;;;;25.55;41.46;92613.53;4921836;29;7236;-56
2022/12/15 13:24:27;;;;;;;;;;;;;;;25.54;41.63;92621.06;4915582;29;7066;-56
2022/12/15 13:27:11;;;;;;;;;;;;;;;25.56;41.73;92615.72;4915245;29;8050;-57
2022/12/15 13:30:00;;;;;;;;;;;;;;;25.58;41.96;92615.91;4928379;29;9869;-57
2022/12/15 13:32:40;;;;;;;;;;;;;;;25.59;41.29;92614.63;4930175;28;9191;-57
2022/12/15 13:35:12;;;;;;;;;;;;;;;25.59;41.42;92609.13;4914836;29;7085;-56
2022/12/15 13:38:17;;;;;;;;;;;;;;;25.59;41.97;92606.38;4932112;29;7382;-56
2022/12/15 13:41:34;;;;;;;;;;;;;;;25.58;42.30;92612.44;4868483;29;7492;-56
2022/12/15 13:44:33;;;;;;;;;;;;;;;25.58;41.78;92612.44;4861788;29;7141;-58
2022/12/15 13:47:33;;;;;;;;;;;;;;;25.57;41.67;92599.94;4865916;29;7302;-56
2022/12/15 13:50:36;;;;;;;;;;;;;;;25.58;41.75;92599.38;4881864;29;8033;-57
2022/12/15 13:53:19;;;;;;;;;;;;;;;25.57;41.22;92600.69;4877716;29;8874;-57
2022/12/15 13:56:29;;;;;;;;;;;;;;;25.57;41.09;92611.69;4881165;29;7029;-59
2022/12/15 13:59:12;;;;;;;;;;;;;;;25.57;41.19;92603.44;4883255;29;7297;-57
2022/12/15 14:01:48;;;;;;;;;;;;;;;25.56;40.87;92604.72;4880015;29;7301;-57
2022/12/15 14:04:23;;;;;;;;;;;;;;;25.56;41.49;92604.72;4883230;29;7279;-57
2022/12/15 14:07:02;;;;;;;;;;;;;;;25.58;42.16;92591.13;4879346;29;7299;-56
2022/12/15 14:09:36;;;;;;;;;;;;;;;25.60;41.91;92588.56;4883607;29;8435;-57
2022/12/15 14:12:13;;;;;;;;;;;;;;;25.63;41.78;92586.72;4884218;29;7079;-56
2022/12/15 14:14:47;;;;;;;;;;;;;;;25.65;41.20;92589.66;4920170;28;9001;-56
2022/12/15 14:17:47;;;;;;;;;;;;;;;25.64;41.52;92580.69;4942492;28;7419;-58
2022/12/15 14:20:28;;;;;;;;;;;;;;;25.63;41.43;92581.22;4964514;28;7279;-56
2022/12/15 14:23:24;;;;;;;;;;;;;;;25.64;41.73;92588.19;4957255;28;7112;-56
2022/12/15 14:26:16;;;;;;;;;;;;;;;25.67;41.23;92584.31;4951140;28;7495;-57
2022/12/15 14:28:46;;;;;;;;;;;;;;;25.65;41.15;92581.41;4943252;28;9483;-57
2022/12/15 14:31:31;;;;;;;;;;;;;;;25.68;41.03;92586.53;4950050;28;7493;-56
2022/12/15 14:34:22;;;;;;;;;;;;;;;25.69;41.33;92590.00;4919837;29;7033;-57
2022/12/15 14:37:06;;;;;;;;;;;;;;;25.70;41.22;92597.00;4934055;28;7181;-61
2022/12/15 14:39:45;;;;;;;;;;;;;;;25.71;41.17;92592.97;4935756;28;9769;-61
2022/12/15 14:42:26;;;;;;;;;;;;;;;25.73;41.13;92584.88;4936384;28;7104;-62
2022/12/15 14:44:53;;;;;;;;;;;;;;;25.73;41.57;92577.31;4931466;28;9083;-62
2022/12/15 14:47:55;;;;;;;;;;;;;;;25.72;40.74;92581.38;4933520;28;7743;-62
2022/12/15 14:50:24;;;;;;;;;;;;;;;25.71;41.28;92576.44;4909063;29;7064;-62
2022/12/15 14:53:16;;;;;;;;;;;;;;;25.67;41.43;92576.81;4915558;29;8415;-62
2022/12/15 14:55:49;;;;;;;;;;;;;;;25.64;41.16;92575.16;4924668;28;7036;-63
2022/12/15 14:58:39;;;;;;;;;;;;;;;25.65;41.49;92578.63;4939920;28;8290;-62
2022/12/15 15:01:26;;;;;;;;;;;;;;;25.65;41.08;92570.38;4927013;28;9312;-61
2022/12/15 15:04:04;;;;;;;;;;;;;;;25.64;40.81;92568.94;4938047;28;7056;-61
2022/12/15 15:06:39;;;;;;;;;;;;;;;25.64;40.81;92566.16;4939058;28;7115;-62
2022/12/15 15:09:48;;;;;;;;;;;;;;;25.62;41.26;92568.75;4950115;28;7309;-62
2022/12/15 15:12:19;;;;;;;;;;;;;;;25.59;41.34;92576.09;4937921;28;8587;-61
2022/12/15 15:15:02;;;;;;;;;;;;;;;25.60;41.08;92566.53;4937203;28;7041;-61
2022/12/15 15:17:44;;;;;;;;;;;;;;;25.59;41.55;92567.09;4928680;28;9174;-61
2022/12/15 15:20:20;;;;;;;;;;;;;;;25.60;41.16;92574.78;4941060;28;7119;-61
2022/12/15 15:23:06;;;;;;;;;;;;;;;25.60;42.07;92572.03;4942671;28;9189;-62
2022/12/15 15:25:37;;;;;;;;;;;;;;;25.58;41.10;92576.66;4953373;28;7048;-61
2022/12/15 15:28:18;;;;;;;;;;;;;;;25.60;42.03;92574.78;4948496;28;7238;-61
2022/12/15 15:30:47;;;;;;;;;;;;;;;25.61;41.59;92583.78;4950363;28;7130;-62
2022/12/15 15:33:15;;;;;;;;;;;;;;;25.58;40.76;92580.13;4943281;28;7076;-61
2022/12/15 15:35:45;;;;;;;;;;;;;;;25.58;41.15;92585.63;4956027;28;8625;-62
2022/12/15 15:38:19;;;;;;;;;;;;;;;25.58;41.73;92574.63;4965049;28;9125;-62
2022/12/15 15:40:50;;;;;;;;;;;;;;;25.58;41.49;92580.13;4964842;28;7028;-57
2022/12/15 15:43:18;;;;;;;;;;;;;;;25.52;42.00;92568.56;4953777;28;7281;-56
2022/12/15 15:45:45;;;;;;;;;;;;;;;25.51;42.71;92569.13;4961632;28;7530;-56
2022/12/15 15:48:30;;;;;;;;;;;;;;;25.50;42.41;92571.16;4919553;28;7076;-57
2022/12/15 15:50:57;;;;;;;;;;;;;;;25.49;42.86;92572.44;4964780;28;9558;-56
2022/12/15 15:53:25;;;;;;;;;;;;;;;25.50;42.88;92570.41;4969044;28;9384;-58
2022/12/15 15:56:06;;;;;;;;;;;;;;;25.50;42.88;92564.91;4970190;28;7473;-56
2022/12/15 15:58:33;;;;;;;;;;;;;;;25.49;42.46;92574.47;4971741;28;8213;-56
2022/12/15 16:00:59;;;;;;;;;;;;;;;25.51;42.44;92567.13;4957303;28;7173;-56
2022/12/15 16:03:25;;;;;;;;;;;;;;;25.52;42.28;92565.09;4943000;28;8124;-56
2022/12/15 16:06:05;;;;;;;;;;;;;;;25.52;42.08;92554.06;4971906;28;9057;-56
2022/12/15 16:09:03;;;;;;;;;;;;;;;25.53;42.88;92556.28;4951995;28;9105;-56
2022/12/15 16:11:56;;;;;;;;;;;;;;;25.53;41.78;92564.56;4972844;28;7296;-55
2022/12/15 16:14:29;;;;;;;;;;;;;;;25.53;41.92;92561.78;4956085;28;7004;-56
2022/12/15 16:17:28;;;;;;;;;;;;;;;25.53;42.72;92553.53;4952923;28;7281;-56
2022/12/15 16:20:05;;;;;;;;;;;;;;;25.53;42.32;92556.28;4886407;29;9801;-56
2022/12/15 16:22:42;;;;;;;;;;;;;;;25.51;42.62;92550.59;4874998;29;9020;-56
2022/12/15 16:25:17;;;;;;;;;;;;;;;25.51;42.76;92542.34;4893491;29;7170;-57
2022/12/15 16:28:21;;;;;;;;;;;;;;;25.54;41.98;92541.22;4878582;29;7062;-56
2022/12/15 16:30:48;;;;;;;;;;;;;;;25.52;42.25;92540.31;4885042;29;9988;-55